Unser Platzwetter:
(um das Bild zu aktualisieren oder bei unvollständig geladenem Bild den Reload-Button des Browsers drücken)

 

 
[Quelle: ADDS]
METAR
ETNN 150620Z 25017KT 9999 RA BKN020 OVC038 10/07 Q0995 WHT =
TAF
SR / SS: 07:28 / 15:27 UTC (Vettweiss-Soller 2019-12-15)
 

Hier gibt es ein Wetterdiagramm der letzten 7 Tage.

Hier geht es zu unserer Webcam.

Satelitenbild:

aktuelles Meteosat-Bild von www.wetterzentrale.de